Time;durP1;ratioP1;P1;durP2;ratioP2;P2;SDS_P1;SDS_P2;PMS_P1;PMS_P2;Temp;Humidity;BMP_temperature;BMP_pressure;BME280_temperature;BME280_humidity;BME280_pressure;Samples;Min_cycle;Max_cycle;Signal;HPM_P1;HPM_P2
2022/08/17 00:00:25;;;;;;;4.80;2.50;;;;;;;16.10;92.47;96823.96;110011;1250;70596;-68
2022/08/17 00:03:20;;;;;;;2.80;2.20;;;;;;;16.07;92.58;96830.67;109997;1250;68647;-70
2022/08/17 00:06:05;;;;;;;2.60;1.70;;;;;;;16.01;92.02;96828.19;109669;1250;69581;-69
2022/08/17 00:08:39;;;;;;;5.40;2.30;;;;;;;15.96;91.79;96830.90;110033;1249;59723;-70
2022/08/17 00:11:13;;;;;;;3.60;2.10;;;;;;;15.91;91.46;96835.80;110058;1249;59646;-69
2022/08/17 00:13:50;;;;;;;4.80;2.50;;;;;;;15.85;89.83;96838.02;109696;1250;70752;-68
2022/08/17 00:16:31;;;;;;;4.20;2.50;;;;;;;15.81;89.23;96841.81;109659;1250;69405;-69
2022/08/17 00:19:24;;;;;;;6.10;2.80;;;;;;;15.77;91.43;96842.49;109735;1250;68650;-69
2022/08/17 00:21:59;;;;;;;3.50;2.70;;;;;;;15.75;89.79;96844.09;109661;1251;59754;-69
2022/08/17 00:24:49;;;;;;;3.40;2.30;;;;;;;15.76;87.87;96840.70;109651;1251;59692;-69
2022/08/17 00:27:20;;;;;;;5.90;2.70;;;;;;;15.75;90.54;96839.16;109887;1250;71540;-68
2022/08/17 00:29:50;;;;;;;4.90;2.70;;;;;;;15.73;91.92;96839.40;110005;1249;69319;-68
2022/08/17 00:32:20;;;;;;;3.30;2.10;;;;;;;15.65;93.22;96838.50;110028;1249;69446;-69
2022/08/17 00:35:16;;;;;;;3.50;2.60;;;;;;;15.60;92.68;96831.27;109998;1250;59750;-66
2022/08/17 00:37:46;;;;;;;4.20;2.60;;;;;;;15.56;93.49;96831.51;109839;1250;59668;-69
2022/08/17 00:40:18;;;;;;;3.30;2.10;;;;;;;15.49;93.74;96825.84;109668;1250;70769;-68
2022/08/17 00:42:53;;;;;;;4.30;2.30;;;;;;;15.44;94.41;96823.25;109676;1250;69205;-68
2022/08/17 00:45:23;;;;;;;4.00;2.30;;;;;;;15.42;95.19;96827.84;109810;1250;68496;-70
2022/08/17 00:47:54;;;;;;;5.70;3.00;;;;;;;15.41;95.84;96832.88;110847;1250;59621;-68
2022/08/17 00:50:24;;;;;;;3.10;2.50;;;;;;;15.37;95.88;96837.00;110048;1250;59682;-69
2022/08/17 00:52:56;;;;;;;3.50;2.60;;;;;;;15.34;95.89;96844.64;110058;1250;71579;-68
2022/08/17 00:55:27;;;;;;;5.70;2.70;;;;;;;15.32;96.13;96838.75;110007;1249;69400;-69
2022/08/17 00:58:03;;;;;;;2.90;2.20;;;;;;;15.30;93.47;96840.44;109981;1248;69641;-69
2022/08/17 01:00:39;;;;;;;6.20;2.60;;;;;;;15.29;91.02;96838.06;109753;1251;59757;-67
2022/08/17 01:03:14;;;;;;;4.20;2.90;;;;;;;15.27;90.88;96839.34;109893;1250;59751;-70
2022/08/17 01:05:47;;;;;;;5.00;2.90;;;;;;;15.23;90.63;96839.15;109751;1250;71425;-68
2022/08/17 01:08:23;;;;;;;5.10;3.80;;;;;;;15.21;90.25;96838.02;109823;1250;69394;-68
2022/08/17 01:10:57;;;;;;;5.60;4.00;;;;;;;15.18;90.34;96839.58;110021;1248;67845;-67
2022/08/17 01:13:41;;;;;;;6.90;4.20;;;;;;;15.13;92.25;96836.21;109986;1249;59767;-67
2022/08/17 01:16:24;;;;;;;6.30;4.00;;;;;;;15.08;94.60;96845.09;109718;1250;59691;-69
2022/08/17 01:18:59;;;;;;;5.70;3.40;;;;;;;15.04;95.74;96848.45;110135;1249;71516;-68
2022/08/17 01:21:50;;;;;;;6.90;4.70;;;;;;;15.01;95.86;96851.52;110005;1249;69385;-67
2022/08/17 01:24:21;;;;;;;4.70;3.40;;;;;;;14.99;96.33;96851.47;109995;1250;69375;-68
2022/08/17 01:26:51;;;;;;;4.80;3.50;;;;;;;14.95;96.30;96850.60;110120;1247;59738;-69
2022/08/17 01:29:29;;;;;;;5.60;3.60;;;;;;;14.93;96.60;96850.27;110069;1250;59672;-67
2022/08/17 01:32:04;;;;;;;4.00;3.00;;;;;;;14.91;94.27;96845.02;110040;1248;71565;-68
2022/08/17 01:34:34;;;;;;;4.50;3.50;;;;;;;14.90;94.65;96845.16;110020;1247;69487;-68
2022/08/17 01:37:14;;;;;;;5.80;3.80;;;;;;;14.88;95.69;96845.30;110026;1248;68312;-70
2022/08/17 01:39:53;;;;;;;4.50;3.40;;;;;;;14.87;96.55;96844.40;110011;1250;59745;-70
2022/08/17 01:42:33;;;;;;;6.00;3.70;;;;;;;14.86;97.89;96842.75;110109;1249;59685;-69
2022/08/17 01:45:18;;;;;;;5.10;3.70;;;;;;;14.84;97.09;96838.92;110086;1249;71737;-68
2022/08/17 01:47:51;;;;;;;4.00;3.20;;;;;;;14.83;97.44;96835.81;110351;1249;69040;-69
2022/08/17 01:50:29;;;;;;;4.70;3.00;;;;;;;14.83;97.72;96838.62;110242;1247;68630;-68
2022/08/17 01:53:06;;;;;;;4.30;3.00;;;;;;;14.83;97.96;96840.39;110073;1247;59864;-69
2022/08/17 01:55:56;;;;;;;5.90;3.10;;;;;;;14.80;97.26;96839.84;110035;1247;59653;-67
2022/08/17 01:58:26;;;;;;;3.80;2.60;;;;;;;14.77;96.13;96838.89;109782;1250;71357;-67
2022/08/17 02:00:57;;;;;;;4.30;2.70;;;;;;;14.74;97.28;96842.73;110110;1247;69451;-69
2022/08/17 02:03:31;;;;;;;4.30;3.10;;;;;;;14.70;97.44;96841.14;110032;1247;68478;-67
2022/08/17 02:06:02;;;;;;;4.60;2.90;;;;;;;14.67;97.53;96836.08;110065;1248;59824;-68
2022/08/17 02:08:34;;;;;;;4.20;2.30;;;;;;;14.64;98.03;96831.73;110068;1247;59734;-67
2022/08/17 02:11:24;;;;;;;5.40;3.10;;;;;;;14.63;98.17;96832.00;110007;1247;70751;-70
2022/08/17 02:13:57;;;;;;;4.90;3.20;;;;;;;14.63;99.46;96830.42;110079;1247;68277;-70
2022/08/17 02:16:35;;;;;;;5.20;3.10;;;;;;;14.63;99.14;96825.58;110157;1247;69291;-68
2022/08/17 02:19:12;;;;;;;3.20;2.20;;;;;;;14.61;98.55;96824.30;110022;1247;59761;-68
2022/08/17 02:21:46;;;;;;;4.70;3.50;;;;;;;14.61;96.63;96826.48;109969;1247;59693;-67
2022/08/17 02:24:37;;;;;;;7.20;4.00;;;;;;;14.59;97.03;96825.02;110075;1247;71560;-66
2022/08/17 02:27:29;;;;;;;4.40;3.00;;;;;;;14.58;97.85;96826.79;109736;1249;69425;-68
2022/08/17 02:29:59;;;;;;;5.50;3.40;;;;;;;14.56;99.05;96826.80;110037;1250;68601;-69
2022/08/17 02:32:29;;;;;;;7.10;3.60;;;;;;;14.54;99.36;96826.09;110156;1248;59819;-69
2022/08/17 02:34:59;;;;;;;3.90;3.10;;;;;;;14.51;99.42;96825.54;109982;1250;59757;-71
2022/08/17 02:37:28;;;;;;;4.00;2.60;;;;;;;14.50;99.31;96827.52;110181;1248;70765;-70
2022/08/17 02:39:59;;;;;;;3.60;2.40;;;;;;;14.48;98.88;96828.38;109855;1248;68684;-70
2022/08/17 02:42:32;;;;;;;4.20;2.50;;;;;;;14.48;98.34;96831.59;110048;1247;69263;-67
2022/08/17 02:45:04;;;;;;;3.60;2.50;;;;;;;14.47;98.06;96831.30;110073;1247;59757;-68
2022/08/17 02:47:35;;;;;;;4.20;2.60;;;;;;;14.46;97.78;96836.33;110323;1247;59705;-66
2022/08/17 02:50:08;;;;;;;5.50;2.70;;;;;;;14.44;97.94;96836.84;110232;1247;70900;-68
2022/08/17 02:52:40;;;;;;;5.10;3.20;;;;;;;14.43;99.11;96840.08;110079;1247;69412;-67
2022/08/17 02:55:37;;;;;;;4.30;2.90;;;;;;;14.42;99.68;96844.61;110121;1247;69304;-69
2022/08/17 02:58:09;;;;;;;5.10;2.80;;;;;;;14.42;99.23;96848.11;110467;1247;60009;-67
2022/08/17 03:00:42;;;;;;;3.90;2.50;;;;;;;14.44;99.96;96847.20;110345;1247;59694;-68
2022/08/17 03:03:17;;;;;;;3.70;2.50;;;;;;;14.45;98.39;96846.19;110082;1247;71668;-67
2022/08/17 03:05:52;;;;;;;3.90;2.70;;;;;;;14.47;96.28;96844.78;110123;1247;69488;-67
2022/08/17 03:08:24;;;;;;;4.50;2.60;;;;;;;14.48;95.43;96845.04;110131;1246;69485;-68
2022/08/17 03:10:54;;;;;;;3.90;2.60;;;;;;;14.49;94.71;96852.64;110139;1247;59696;-68
2022/08/17 03:13:26;;;;;;;3.80;2.60;;;;;;;14.50;96.55;96853.23;110184;1247;59763;-68
2022/08/17 03:15:55;;;;;;;4.10;2.60;;;;;;;14.50;98.13;96856.92;110213;1247;71582;-67
2022/08/17 03:18:26;;;;;;;4.60;2.70;;;;;;;14.50;97.43;96860.30;109934;1247;69479;-67
2022/08/17 03:21:00;;;;;;;4.50;3.30;;;;;;;14.51;99.38;96856.37;110112;1247;69459;-68
2022/08/17 03:23:31;;;;;;;4.90;2.70;;;;;;;14.51;100.00;96854.95;110230;1247;59670;-68
2022/08/17 03:26:01;;;;;;;4.50;2.70;;;;;;;14.50;99.96;96854.89;110210;1247;59688;-68
2022/08/17 03:28:40;;;;;;;4.50;2.90;;;;;;;14.49;99.70;96858.10;110276;1247;72296;-68
2022/08/17 03:31:10;;;;;;;4.60;2.80;;;;;;;14.49;100.00;96856.48;110137;1247;68550;-67
2022/08/17 03:33:38;;;;;;;5.50;2.70;;;;;;;14.51;100.00;96858.98;110253;1247;69209;-67
2022/08/17 03:36:09;;;;;;;3.90;2.30;;;;;;;14.54;100.00;96858.54;110125;1247;59735;-67
2022/08/17 03:38:39;;;;;;;5.00;3.20;;;;;;;14.58;100.00;96864.30;110005;1250;59637;-67
2022/08/17 03:41:09;;;;;;;;;;;;;;;14.64;100.00;96863.18;110278;1247;70853;-68
2022/08/17 03:43:40;;;;;;;3.70;2.60;;;;;;;14.68;100.00;96864.51;110054;1247;68648;-68
2022/08/17 03:57:33;;;;;;;7.80;3.60;;;;;;;14.94;99.98;96866.14;110119;1247;68566;-66
2022/08/17 04:00:04;;;;;;;5.90;3.80;;;;;;;14.98;99.98;96867.03;110202;1247;69566;-68
2022/08/17 04:02:41;;;;;;;6.00;3.00;;;;;;;14.98;99.22;96867.72;110162;1247;59764;-68
2022/08/17 04:05:11;;;;;;;4.90;3.00;;;;;;;14.99;98.57;96865.79;109933;1250;59718;-68
2022/08/17 04:07:40;;;;;;;4.00;2.50;;;;;;;15.00;98.45;96862.50;110219;1247;71551;-69
2022/08/17 04:10:09;;;;;;;4.90;2.60;;;;;;;15.04;98.66;96868.46;110263;1247;69056;-68
2022/08/17 04:12:51;;;;;;;3.40;2.20;;;;;;;15.13;99.41;96864.84;110453;1247;68022;-67
2022/08/17 04:15:21;;;;;;;3.40;2.20;;;;;;;15.24;99.18;96867.33;110227;1247;59786;-69
2022/08/17 04:17:52;;;;;;;3.50;2.30;;;;;;;15.35;98.62;96868.03;110199;1247;59665;-65
2022/08/17 04:20:23;;;;;;;4.40;3.00;;;;;;;15.45;98.36;96873.73;110160;1247;71315;-68
2022/08/17 04:23:04;;;;;;;4.70;3.00;;;;;;;15.51;97.92;96874.27;110050;1247;69044;-69
2022/08/17 04:25:35;;;;;;;4.60;3.30;;;;;;;15.57;97.49;96874.55;109873;1248;67780;-69
2022/08/17 04:28:05;;;;;;;4.30;2.40;;;;;;;15.59;97.27;96877.05;109995;1247;59704;-68
2022/08/17 04:30:44;;;;;;;5.10;3.20;;;;;;;15.58;95.96;96878.86;110056;1247;59760;-67
2022/08/17 04:33:25;;;;;;;4.50;2.90;;;;;;;15.51;94.52;96878.31;110057;1247;70775;-68
2022/08/17 04:36:01;;;;;;;4.30;3.20;;;;;;;15.43;94.19;96883.33;110119;1247;71558;-68
2022/08/17 04:38:34;;;;;;;4.60;2.90;;;;;;;15.36;94.02;96883.21;110194;1247;70060;-68
2022/08/17 04:43:57;;;;;;;4.30;2.70;;;;;;;15.30;94.04;96885.88;110127;1247;59690;-69
2022/08/17 04:46:31;;;;;;;4.60;3.40;;;;;;;15.36;94.38;96887.45;110141;1247;70775;-68
2022/08/17 04:49:04;;;;;;;6.70;3.40;;;;;;;15.45;94.94;96885.48;110372;1247;69545;-68
2022/08/17 04:51:40;;;;;;;6.40;2.90;;;;;;;15.64;94.89;96887.42;110228;1247;69216;-67
2022/08/17 04:54:27;;;;;;;5.90;2.70;;;;;;;15.89;93.92;96885.10;108819;1247;1773719;-67
2022/08/17 04:56:56;;;;;;;5.80;3.30;;;;;;;16.04;93.34;96887.50;110109;1247;59703;-68
2022/08/17 04:59:25;;;;;;;4.50;2.90;;;;;;;16.16;93.34;96890.10;110165;1247;71625;-69
2022/08/17 05:01:55;;;;;;;5.40;3.10;;;;;;;16.27;93.22;96896.23;110131;1247;69441;-67
2022/08/17 05:04:25;;;;;;;6.20;3.00;;;;;;;16.36;92.99;96891.55;110130;1247;68644;-68
2022/08/17 05:07:03;;;;;;;3.90;2.90;;;;;;;16.46;92.64;96891.03;110089;1247;59618;-69
2022/08/17 05:09:32;;;;;;;6.70;2.80;;;;;;;16.52;92.58;96891.48;110204;1247;59611;-68
2022/08/17 05:12:01;;;;;;;8.40;3.40;;;;;;;16.58;92.23;96886.27;109899;1250;71798;-68
2022/08/17 05:14:30;;;;;;;5.40;3.10;;;;;;;16.64;91.63;96881.31;110187;1247;69865;-68
2022/08/17 05:17:02;;;;;;;4.70;3.20;;;;;;;16.71;91.48;96881.20;110150;1247;69297;-67
2022/08/17 05:19:38;;;;;;;3.70;2.30;;;;;;;16.91;91.39;96886.84;110140;1249;59710;-67
2022/08/17 05:22:07;;;;;;;4.00;2.40;;;;;;;17.18;90.55;96890.81;110399;1247;59680;-67
2022/08/17 05:24:36;;;;;;;7.80;3.90;;;;;;;17.43;89.70;96889.32;110360;1247;72122;-68
2022/08/17 05:27:21;;;;;;;4.30;2.90;;;;;;;17.51;88.09;96891.31;110173;1247;69449;-68
2022/08/17 05:29:51;;;;;;;4.30;2.80;;;;;;;17.57;87.81;96890.32;110116;1247;70208;-67
2022/08/17 05:32:21;;;;;;;4.10;2.70;;;;;;;17.52;87.78;96897.66;110074;1247;59746;-67
2022/08/17 05:35:10;;;;;;;4.50;2.70;;;;;;;17.45;87.72;96903.17;110129;1247;59676;-68
2022/08/17 05:37:38;;;;;;;4.00;2.40;;;;;;;17.52;87.75;96903.02;110078;1247;71747;-67
2022/08/17 05:40:09;;;;;;;3.80;2.40;;;;;;;17.62;88.08;96906.27;110188;1247;68483;-69
2022/08/17 05:42:38;;;;;;;3.30;2.40;;;;;;;17.70;88.12;96910.66;110124;1247;68495;-67
2022/08/17 05:45:07;;;;;;;3.50;2.20;;;;;;;17.73;87.77;96907.95;110111;1247;59741;-67
2022/08/17 05:47:38;;;;;;;3.70;2.60;;;;;;;17.80;87.62;96909.37;110170;1247;59755;-68
2022/08/17 05:50:09;;;;;;;4.00;2.30;;;;;;;17.86;86.93;96911.77;110006;1247;71852;-65
2022/08/17 05:52:54;;;;;;;3.70;2.30;;;;;;;17.95;86.16;96908.47;110108;1247;69820;-64
2022/08/17 05:55:48;;;;;;;4.50;2.20;;;;;;;18.04;85.70;96913.70;109991;1249;68892;-64
2022/08/17 05:58:45;;;;;;;3.80;2.20;;;;;;;18.06;85.11;96910.78;109923;1250;59746;-65
2022/08/17 06:01:21;;;;;;;3.40;2.00;;;;;;;18.14;85.12;96914.49;109748;1248;59689;-64
2022/08/17 06:04:34;;;;;;;3.60;2.20;;;;;;;18.26;84.76;96915.23;110037;1249;72126;-63
2022/08/17 06:07:28;;;;;;;2.80;2.00;;;;;;;18.38;84.31;96918.90;110030;1247;68437;-64
2022/08/17 06:10:16;;;;;;;2.60;2.00;;;;;;;18.51;84.04;96921.33;110030;1248;69307;-63
2022/08/17 06:13:04;;;;;;;3.50;2.10;;;;;;;18.67;83.97;96925.09;109946;1249;59715;-65
2022/08/17 06:15:52;;;;;;;3.20;2.20;;;;;;;18.87;83.38;96927.98;109643;1249;59724;-63
2022/08/17 06:18:27;;;;;;;3.30;2.30;;;;;;;19.07;81.98;96927.94;109648;1250;70777;-65
2022/08/17 06:21:00;;;;;;;3.30;2.30;;;;;;;19.26;80.41;96926.86;109643;1250;69357;-63
2022/08/17 06:23:36;;;;;;;3.10;2.30;;;;;;;19.42;79.99;96926.02;109819;1249;68917;-62
2022/08/17 06:26:32;;;;;;;2.60;2.20;;;;;;;19.53;78.69;96928.76;110003;1249;59668;-63
2022/08/17 06:29:34;;;;;;;3.60;2.20;;;;;;;19.70;78.35;96927.95;109725;1250;59650;-66
2022/08/17 06:32:08;;;;;;;3.20;2.40;;;;;;;19.90;77.85;96926.86;110166;1249;71439;-64
2022/08/17 06:34:42;;;;;;;4.40;2.60;;;;;;;20.04;77.12;96924.66;110347;1247;68963;-64
2022/08/17 06:37:26;;;;;;;2.90;2.20;;;;;;;20.30;76.91;96922.68;110062;1247;69255;-66
2022/08/17 06:40:10;;;;;;;3.50;2.10;;;;;;;20.72;77.76;96923.27;109958;1248;59753;-65
2022/08/17 06:42:53;;;;;;;3.50;2.00;;;;;;;20.89;71.45;96919.29;109899;1249;59699;-66
2022/08/17 06:45:40;;;;;;;3.90;2.30;;;;;;;20.96;71.85;96920.89;109991;1249;71937;-67
2022/08/17 06:48:41;;;;;;;5.30;2.50;;;;;;;21.43;72.71;96926.24;110053;1249;69013;-64
2022/08/17 06:51:17;;;;;;;4.70;2.50;;;;;;;21.93;70.15;96920.90;109879;1247;68730;-64
2022/08/17 06:54:06;;;;;;;4.10;2.90;;;;;;;22.28;67.55;96921.84;110110;1247;59752;-67
2022/08/17 06:56:56;;;;;;;4.50;2.90;;;;;;;22.55;67.01;96920.64;110048;1247;59611;-69
2022/08/17 06:59:36;;;;;;;4.20;3.10;;;;;;;22.60;65.04;96921.69;110125;1247;70768;-68
2022/08/17 07:02:26;;;;;;;4.90;3.20;;;;;;;22.74;64.14;96921.38;110055;1247;68662;-68
2022/08/17 07:05:18;;;;;;;4.40;3.00;;;;;;;22.88;63.53;96919.82;110107;1247;68834;-67
2022/08/17 07:08:00;;;;;;;6.00;3.20;;;;;;;23.27;62.87;96920.20;110052;1248;59777;-66
2022/08/17 07:10:42;;;;;;;3.80;2.90;;;;;;;23.79;61.04;96926.24;109827;1249;59727;-68
2022/08/17 07:13:32;;;;;;;3.70;2.80;;;;;;;23.99;60.40;96918.16;109996;1250;70693;-67
2022/08/17 07:16:31;;;;;;;4.80;3.80;;;;;;;24.02;60.49;96923.75;110005;1249;68921;-66
2022/08/17 07:19:01;;;;;;;6.30;3.80;;;;;;;24.26;60.35;96925.38;109751;1250;70201;-66
2022/08/17 07:22:12;;;;;;;4.10;2.80;;;;;;;24.06;59.91;96929.05;110028;1250;59830;-66
2022/08/17 07:24:47;;;;;;;4.80;3.70;;;;;;;24.31;60.38;96928.22;109551;1250;59630;-65
2022/08/17 07:27:26;;;;;;;4.10;3.10;;;;;;;24.35;59.67;96931.33;109953;1249;71423;-65
2022/08/17 07:30:08;;;;;;;4.60;3.50;;;;;;;24.19;59.89;96924.70;110020;1249;68592;-66
2022/08/17 07:32:44;;;;;;;4.40;3.70;;;;;;;24.27;59.65;96924.84;110083;1247;70178;-67
2022/08/17 07:35:27;;;;;;;7.40;4.90;;;;;;;24.05;60.01;96932.16;110171;1247;59676;-64
2022/08/17 07:38:18;;;;;;;5.00;3.90;;;;;;;24.27;59.82;96926.33;110048;1249;59771;-67
2022/08/17 07:40:56;;;;;;;5.60;4.20;;;;;;;24.41;58.41;96927.28;110100;1247;71534;-66
2022/08/17 07:43:40;;;;;;;5.80;4.00;;;;;;;24.53;58.28;96922.69;110320;1247;69193;-66
2022/08/17 07:49:07;;;;;;;4.40;3.30;;;;;;;25.19;57.44;96926.78;110129;1248;59764;-68
2022/08/17 07:51:44;;;;;;;5.10;4.40;;;;;;;25.68;56.76;96924.84;110163;1247;59997;-66
2022/08/17 07:54:20;;;;;;;6.30;4.10;;;;;;;26.29;55.54;96925.25;109959;1247;70570;-66
2022/08/17 07:56:52;;;;;;;7.00;4.30;;;;;;;26.78;53.83;96924.86;110154;1247;68501;-66
2022/08/17 07:59:29;;;;;;;6.40;4.60;;;;;;;27.00;52.62;96925.03;109939;1247;69211;-65
2022/08/17 08:02:05;;;;;;;5.70;4.30;;;;;;;27.42;51.67;96924.14;109903;1249;59745;-64
2022/08/17 08:04:41;;;;;;;6.10;4.10;;;;;;;27.74;50.83;96924.08;110102;1247;59687;-63
2022/08/17 08:07:34;;;;;;;7.60;4.40;;;;;;;28.11;50.36;96926.27;109796;1247;71436;-64
2022/08/17 08:10:14;;;;;;;5.10;3.70;;;;;;;28.43;48.51;96916.63;110073;1247;68894;-65
2022/08/17 08:12:59;;;;;;;5.30;4.80;;;;;;;28.89;49.10;96914.07;109736;1250;68724;-67
2022/08/17 08:15:39;;;;;;;6.20;5.30;;;;;;;28.79;47.78;96916.34;109750;1250;59766;-68
2022/08/17 08:18:29;;;;;;;5.60;4.40;;;;;;;28.50;47.63;96916.08;109634;1250;59746;-69
2022/08/17 08:21:31;;;;;;;5.70;4.50;;;;;;;28.75;47.05;96917.23;110028;1248;72053;-67
2022/08/17 08:24:29;;;;;;;7.30;3.90;;;;;;;28.71;47.14;96914.90;110050;1248;68454;-64
2022/08/17 08:27:10;;;;;;;5.90;4.30;;;;;;;28.65;47.81;96911.55;109727;1247;69256;-66
2022/08/17 08:29:53;;;;;;;6.30;4.10;;;;;;;28.45;48.29;96914.80;110008;1249;59738;-65
2022/08/17 08:32:49;;;;;;;4.10;3.30;;;;;;;28.50;49.10;96919.79;109831;1250;59668;-65
2022/08/17 08:35:29;;;;;;;5.10;3.50;;;;;;;28.57;47.00;96920.36;110040;1249;72438;-65
2022/08/17 08:38:25;;;;;;;6.00;4.70;;;;;;;28.57;47.24;96920.27;110011;1249;69167;-64
2022/08/17 08:41:18;;;;;;;5.30;4.00;;;;;;;28.44;48.11;96921.02;110094;1247;69686;-64
2022/08/17 08:43:59;;;;;;;5.00;4.20;;;;;;;28.26;48.47;96918.61;110082;1247;59713;-64
2022/08/17 08:47:06;;;;;;;5.30;4.30;;;;;;;28.36;48.61;96915.63;110303;1247;59739;-63
2022/08/17 08:49:55;;;;;;;4.70;3.90;;;;;;;28.79;47.94;96914.08;109851;1249;71762;-67
2022/08/17 08:52:35;;;;;;;6.10;4.10;;;;;;;29.04;47.05;96915.33;109734;1250;69354;-66
2022/08/17 08:55:19;;;;;;;6.30;4.30;;;;;;;29.20;47.43;96916.34;109833;1249;69282;-65
2022/08/17 08:57:54;;;;;;;5.80;4.30;;;;;;;29.56;46.43;96915.52;110001;1249;59770;-64
2022/08/17 09:00:25;;;;;;;5.70;4.20;;;;;;;29.71;46.07;96912.00;109996;1249;59704;-64
2022/08/17 09:03:39;;;;;;;6.70;4.40;;;;;;;29.81;45.41;96914.68;109905;1247;71343;-65
2022/08/17 09:06:30;;;;;;;5.50;4.30;;;;;;;30.06;46.09;96916.51;109782;1249;69365;-64
2022/08/17 09:09:58;;;;;;;6.60;4.50;;;;;;;29.95;45.68;96917.42;109971;1250;70133;-65
2022/08/17 09:12:43;;;;;;;5.70;4.20;;;;;;;30.22;43.77;96918.54;109190;1258;59719;-65
2022/08/17 09:15:44;;;;;;;5.10;4.60;;;;;;;30.52;43.84;96914.57;109039;1259;60056;-64
2022/08/17 09:18:22;;;;;;;5.50;4.60;;;;;;;30.70;43.06;96915.78;109776;1250;71344;-67
2022/08/17 09:21:31;;;;;;;5.50;4.40;;;;;;;30.74;43.64;96913.35;109969;1249;69235;-65
2022/08/17 09:24:17;;;;;;;8.10;5.20;;;;;;;30.83;43.40;96914.70;109859;1249;69853;-65
2022/08/17 09:27:01;;;;;;;5.40;4.50;;;;;;;31.10;43.85;96913.16;109715;1250;59711;-66
2022/08/17 09:29:35;;;;;;;4.80;4.00;;;;;;;31.39;42.73;96920.91;109934;1249;59671;-65
2022/08/17 09:32:31;;;;;;;5.50;4.20;;;;;;;31.34;42.14;96924.64;110094;1247;71501;-67
2022/08/17 09:35:07;;;;;;;5.50;4.70;;;;;;;31.47;42.28;96924.50;109959;1250;69212;-67
2022/08/17 09:38:03;;;;;;;5.10;4.40;;;;;;;31.60;42.26;96927.48;109995;1249;70122;-69
2022/08/17 09:41:14;;;;;;;5.90;4.90;;;;;;;30.40;42.35;96922.08;109805;1250;59738;-68
2022/08/17 09:44:15;;;;;;;5.50;4.80;;;;;;;30.66;43.28;96923.06;109993;1247;59620;-72
2022/08/17 09:46:58;;;;;;;6.50;4.60;;;;;;;30.38;44.24;96927.66;110079;1247;71530;-73
2022/08/17 09:49:33;;;;;;;5.10;4.20;;;;;;;30.10;44.32;96932.70;110169;1247;69885;-74
2022/08/17 09:52:25;;;;;;;5.40;4.90;;;;;;;29.92;45.08;96934.40;110376;1248;69567;-74
2022/08/17 09:54:57;;;;;;;5.70;4.50;;;;;;;29.71;45.81;96937.59;109672;1250;59788;-75
2022/08/17 09:57:32;;;;;;;7.30;5.50;;;;;;;29.48;46.24;96934.75;110020;1247;59788;-74
2022/08/17 10:00:12;;;;;;;7.40;5.20;;;;;;;29.12;46.08;96937.76;109940;1247;71342;-75
2022/08/17 10:02:41;;;;;;;5.90;5.10;;;;;;;28.68;47.05;96933.49;109996;1247;69002;-71
2022/08/17 10:05:36;;;;;;;4.50;4.00;;;;;;;28.56;48.24;96935.14;110269;1247;68700;-74
2022/08/17 10:08:14;;;;;;;5.70;4.60;;;;;;;28.48;49.15;96933.03;110206;1247;59713;-73
2022/08/17 10:10:42;;;;;;;5.10;4.00;;;;;;;28.56;49.54;96929.48;110085;1248;59691;-76
2022/08/17 10:13:48;;;;;;;5.70;4.50;;;;;;;28.76;48.76;96928.92;110121;1247;71653;-73
2022/08/17 10:16:37;;;;;;;5.90;5.30;;;;;;;28.80;48.73;96932.00;110095;1247;70056;-72
2022/08/17 10:19:43;;;;;;;5.90;4.50;;;;;;;28.67;48.71;96927.35;110199;1247;69236;-74
2022/08/17 10:28:29;;;;;;;6.60;4.70;;;;;;;28.64;49.34;96923.95;110098;1247;72008;-72
2022/08/17 10:31:04;;;;;;;6.50;5.20;;;;;;;28.83;48.50;96920.31;110118;1247;69295;-75
2022/08/17 10:33:56;;;;;;;7.90;5.50;;;;;;;29.12;46.58;96921.62;110098;1247;68485;-73
2022/08/17 10:36:45;;;;;;;9.40;6.40;;;;;;;28.99;46.18;96919.92;110200;1247;59764;-73
2022/08/17 10:39:32;;;;;;;;;;;;;;;28.93;46.72;96919.95;110126;1247;59631;-73
2022/08/17 10:42:17;;;;;;;8.60;6.40;;;;;;;29.44;46.39;96918.27;110055;1247;71480;-73
2022/08/17 10:45:20;;;;;;;7.80;6.10;;;;;;;29.85;44.35;96917.70;110099;1247;68998;-70
2022/08/17 10:48:17;;;;;;;6.00;5.40;;;;;;;30.54;43.77;96919.83;110122;1247;69245;-75
2022/08/17 10:50:56;;;;;;;6.20;4.90;;;;;;;30.21;43.38;96912.68;110500;1247;59682;-75
2022/08/17 10:53:30;;;;;;;7.40;6.30;;;;;;;30.55;43.26;96916.40;110278;1247;59702;-75
2022/08/17 10:56:12;;;;;;;8.40;6.10;;;;;;;30.75;42.46;96907.79;110008;1247;70887;-73
2022/08/17 10:58:59;;;;;;;6.20;5.30;;;;;;;31.17;42.21;96909.23;110237;1247;68764;-73
2022/08/17 11:01:36;;;;;;;8.30;7.30;;;;;;;31.09;42.18;96906.33;110253;1247;69375;-73
2022/08/17 11:04:23;;;;;;;;;;;;;;;30.74;42.56;96900.23;110187;1247;59709;-75
2022/08/17 11:07:04;;;;;;;6.30;5.20;;;;;;;30.69;43.46;96898.77;110188;1247;59688;-73
2022/08/17 11:09:35;;;;;;;7.10;5.80;;;;;;;31.58;42.45;96900.29;109790;1250;71928;-72
2022/08/17 11:12:39;;;;;;;5.20;4.70;;;;;;;32.28;41.60;96903.54;110101;1247;69691;-72
2022/08/17 11:15:24;;;;;;;6.60;5.90;;;;;;;32.79;39.71;96895.06;109224;1256;70320;-73
2022/08/17 11:18:27;;;;;;;6.80;5.70;;;;;;;33.41;39.70;96894.73;110003;1247;60119;-73
2022/08/17 11:21:33;;;;;;;7.30;5.70;;;;;;;33.40;37.87;96893.47;110035;1247;59720;-74
2022/08/17 11:24:19;;;;;;;6.90;6.20;;;;;;;33.80;37.88;96892.73;109977;1247;70744;-74
2022/08/17 11:27:12;;;;;;;14.10;8.50;;;;;;;33.56;36.43;96887.66;110095;1247;69332;-74
2022/08/17 11:29:54;;;;;;;7.20;6.00;;;;;;;32.34;37.47;96886.89;110038;1247;68512;-73
2022/08/17 11:32:43;;;;;;;7.30;6.60;;;;;;;32.64;38.77;96887.38;110153;1247;60197;-73
2022/08/17 11:35:21;;;;;;;7.60;6.30;;;;;;;32.60;39.36;96886.58;110086;1246;59624;-73
2022/08/17 11:38:23;;;;;;;8.50;6.60;;;;;;;32.64;39.84;96883.97;110068;1247;71409;-73
2022/08/17 11:41:26;;;;;;;7.70;6.50;;;;;;;32.04;40.54;96881.35;110125;1247;69838;-72
2022/08/17 11:44:06;;;;;;;8.40;6.60;;;;;;;31.16;41.51;96881.85;110038;1247;69437;-74
2022/08/17 11:53:05;;;;;;;6.10;5.40;;;;;;;32.39;40.19;96881.59;110430;1247;71333;-74
2022/08/17 11:55:34;;;;;;;6.70;6.00;;;;;;;32.90;39.20;96878.44;110038;1247;69337;-73
2022/08/17 11:58:36;;;;;;;7.00;6.00;;;;;;;33.51;37.72;96872.42;110094;1247;69252;-73
2022/08/17 12:01:31;;;;;;;6.20;5.60;;;;;;;33.96;36.61;96869.25;110188;1247;59757;-73
2022/08/17 12:04:32;;;;;;;6.80;6.00;;;;;;;33.95;36.70;96870.93;110137;1247;59684;-73
2022/08/17 12:07:20;;;;;;;7.50;5.40;;;;;;;34.21;36.43;96864.33;110137;1247;71662;-76
2022/08/17 12:09:52;;;;;;;6.60;5.90;;;;;;;34.15;36.57;96862.50;110116;1247;69182;-74
2022/08/17 12:12:32;;;;;;;6.70;6.00;;;;;;;34.24;36.43;96864.91;110035;1247;69459;-74
2022/08/17 12:15:06;;;;;;;6.00;5.40;;;;;;;34.13;35.75;96854.89;110039;1247;59700;-72
2022/08/17 12:17:39;;;;;;;6.50;5.80;;;;;;;34.00;36.99;96858.67;110058;1247;59685;-75
2022/08/17 12:20:22;;;;;;;6.50;5.90;;;;;;;34.29;36.31;96853.13;110055;1247;72036;-75
2022/08/17 12:22:59;;;;;;;6.40;5.80;;;;;;;34.33;36.26;96853.92;110050;1247;69824;-74
2022/08/17 12:25:48;;;;;;;6.50;5.00;;;;;;;34.45;36.32;96854.16;110145;1247;70085;-74
2022/08/17 12:28:35;;;;;;;7.30;6.40;;;;;;;34.20;35.70;96852.50;110196;1247;59737;-72
2022/08/17 12:31:23;;;;;;;6.80;6.00;;;;;;;33.80;36.82;96855.45;110100;1247;59637;-75
2022/08/17 12:33:52;;;;;;;7.20;6.50;;;;;;;33.82;35.40;96853.88;110171;1247;71320;-74
2022/08/17 12:36:24;;;;;;;7.00;6.10;;;;;;;33.65;36.21;96854.32;110197;1247;69567;-74
2022/08/17 12:39:03;;;;;;;7.50;6.10;;;;;;;33.64;36.27;96856.81;110142;1247;69225;-74
2022/08/17 12:41:45;;;;;;;7.90;6.70;;;;;;;33.63;36.45;96858.80;110073;1247;59812;-74
2022/08/17 12:44:16;;;;;;;8.50;6.70;;;;;;;33.25;37.25;96856.05;110159;1247;59609;-73
2022/08/17 12:46:44;;;;;;;6.80;6.10;;;;;;;33.29;37.38;96853.39;110219;1247;71650;-76
2022/08/17 12:49:34;;;;;;;7.00;5.80;;;;;;;33.21;37.10;96858.41;110635;1248;70180;-74
2022/08/17 12:52:18;;;;;;;7.30;6.40;;;;;;;32.74;38.01;96859.81;110403;1247;69957;-74
2022/08/17 12:55:10;;;;;;;6.70;6.00;;;;;;;32.22;38.49;96859.05;110157;1247;59744;-74
2022/08/17 12:57:46;;;;;;;8.20;5.90;;;;;;;32.26;39.16;96852.58;110164;1247;59741;-72